Date,TemperatureHighF,TemperatureAvgF,TemperatureLowF,DewpointHighF,DewpointAvgF,DewpointLowF,HumidityHigh,HumidityAvg,HumidityLow,PressureMaxIn,PressureMinIn,WindSpeedMaxMPH,WindSpeedAvgMPH,GustSpeedMaxMPH,PrecipitationSumIn
2013-1-1,30.2,23.4,12.4,24.2,14.7,5.7,78,69,57,30.09,29.94,6,1,6,0.00
2013-1-2,27.7,20.5,11.0,20.0,14.5,6.0,83,77,69,30.13,30.00,7,1,7,0.00
2013-1-3,30.2,24.8,18.4,25.8,18.8,11.3,83,78,73,30.09,29.97,10,2,10,0.00
2013-1-4,31.3,28.0,22.3,24.4,21.4,17.0,82,76,69,30.11,29.93,13,3,13,0.00
2013-1-5,33.5,25.4,14.6,29.4,20.6,10.5,88,82,76,30.22,29.96,7,1,7,0.00
2013-1-6,37.3,34.4,32.6,33.4,30.1,27.5,88,84,78,30.19,29.84,7,2,7,0.01
2013-1-7,34.7,32.2,29.9,28.3,26.0,24.5,82,78,73,30.31,30.09,11,3,11,0.02
2013-1-8,38.0,29.9,24.1,30.4,24.5,20.0,85,80,72,30.19,30.09,6,1,6,0.02
2013-1-9,45.4,35.9,22.9,34.8,27.3,19.0,89,72,48,30.37,29.97,14,2,14,0.04
2013-1-10,32.0,29.4,27.7,23.8,22.6,21.7,79,76,71,30.47,30.36,1,0,1,0.00
2013-1-11,53.6,46.8,36.9,50.5,43.8,33.8,92,89,85,29.89,29.71,7,2,7,0.11
2013-1-12,57.2,48.5,39.2,51.1,44.8,36.8,92,87,78,29.89,29.78,8,1,8,0.00
2013-1-13,49.5,40.1,32.4,47.0,37.2,29.3,91,89,87,29.97,29.64,5,1,8,0.68
2013-1-14,32.4,26.5,19.8,29.3,20.1,15.1,88,77,67,30.37,29.97,13,2,13,0.00
2013-1-15,31.7,23.5,15.8,23.7,18.0,11.8,86,79,70,30.37,30.08,5,0,5,0.00
2013-1-16,37.8,29.8,21.6,27.4,21.1,17.5,87,71,48,30.09,29.74,12,2,12,0.00
2013-1-17,36.2,30.9,19.8,28.5,21.5,7.2,81,68,54,30.24,29.88,9,2,9,0.00
2013-1-18,35.1,25.4,14.2,24.1,15.9,7.8,80,67,56,30.37,29.91,12,3,12,0.00
2013-1-19,46.4,39.8,33.5,34.9,30.2,23.9,74,68,60,29.91,29.50,13,4,13,0.00
2013-1-20,43.9,24.7,17.8,35.2,12.3,6.2,73,59,47,30.11,29.48,17,4,17,0.00
2013-1-21,22.1,15.8,6.3,13.2,6.5,-3.5,79,67,57,30.08,29.87,10,2,10,0.00
2013-1-22,12.6,6.9,1.1,1.6,-3.1,-9.3,72,63,55,30.20,30.03,12,2,12,0.00
2013-1-23,20.0,13.0,4.7,13.1,5.6,-2.2,79,72,66,30.20,30.00,8,1,8,0.00
2013-1-24,20.3,15.2,10.8,11.2,6.5,2.1,80,69,49,30.50,30.03,7,1,7,0.00
2013-1-25,24.5,19.8,15.1,17.9,13.1,6.0,82,75,67,30.43,29.95,8,1,8,0.00
2013-1-26,28.8,22.4,15.3,18.7,15.2,9.2,84,74,61,30.37,29.98,8,1,8,0.00
2013-1-27,31.1,21.8,10.6,27.6,15.7,5.6,89,77,64,30.41,30.08,10,2,10,0.00
2013-1-28,42.5,36.3,30.6,39.6,33.4,27.6,91,89,88,30.11,29.79,5,0,5,0.44
2013-1-29,53.3,43.3,34.9,51.6,41.0,32.0,94,91,89,29.97,29.43,8,2,8,0.49
2013-1-30,58.3,49.9,35.3,55.4,47.0,31.0,93,90,85,29.44,29.07,13,3,13,0.00
2013-1-31,35.1,24.5,18.0,31.0,17.5,12.0,85,74,63,29.80,29.17,13,3,15,0.00
2013-2-1,22.7,16.9,11.9,12.5,9.7,4.2,81,73,60,30.19,29.80,11,2,11,0.00
2013-2-2,26.6,18.8,13.0,20.4,13.3,7.0,83,79,75,30.14,29.88,7,2,7,0.00
2013-2-3,24.7,15.3,4.0,17.3,9.2,-0.9,83,77,67,29.94,29.77,8,1,8,0.00
2013-2-4,26.8,20.4,14.6,20.4,14.9,7.7,83,79,73,29.95,29.82,3,0,3,0.00
2013-2-5,29.9,24.3,19.3,25.0,18.8,14.9,87,80,66,29.88,29.75,9,1,9,0.00
2013-2-6,31.3,23.0,9.4,24.8,16.4,5.0,86,76,63,30.24,29.88,6,1,6,0.08
2013-2-7,39.2,31.5,25.6,29.4,24.2,19.4,79,74,67,30.23,29.83,8,2,8,0.01
2013-2-8,31.1,28.4,24.7,27.4,23.5,18.2,88,82,76,30.27,29.71,8,2,8,0.00
2013-2-9,31.3,21.9,10.3,21.4,15.6,6.0,86,77,64,30.37,30.22,7,1,7,0.12
2013-2-10,40.3,28.3,14.8,33.7,22.8,10.8,88,80,67,30.24,29.65,5,1,5,0.15
2013-2-11,42.3,37.5,32.9,39.7,31.5,26.3,91,79,70,29.80,29.50,16,4,16,0.01
2013-2-12,34.9,32.2,30.2,27.0,25.0,22.2,79,74,70,29.98,29.80,12,2,12,0.00
2013-2-13,38.9,31.7,28.4,28.3,24.3,21.5,82,74,64,29.87,29.67,6,1,6,0.00
2013-2-14,28.6,27.6,26.6,23.8,23.1,22.3,84,83,82,29.73,29.71,3,1,3,0.00
2013-2-17,22.7,17.2,12.6,8.8,7.2,5.6,74,65,54,30.15,30.10,4,0,4,0.00
2013-2-18,43.2,29.9,12.6,33.9,21.6,5.9,81,71,62,30.15,29.56,10,3,10,0.00
2013-2-19,43.2,30.9,19.6,38.7,24.9,11.2,90,78,69,29.85,29.37,16,5,16,0.16
2013-2-20,24.7,21.4,17.1,15.7,12.9,10.0,79,70,61,30.16,29.85,16,3,16,0.00
2013-2-21,26.3,22.7,20.5,19.0,14.9,13.1,81,72,63,30.32,30.15,9,2,9,0.00
2013-2-22,34.2,25.5,23.4,31.2,21.0,17.9,89,83,79,30.22,29.83,8,3,8,0.00
2013-2-23,36.0,32.3,27.9,30.8,24.9,21.0,88,74,64,29.86,29.80,10,2,10,0.00
2013-2-24,37.1,29.4,21.4,28.4,22.4,15.9,82,75,64,30.09,29.83,8,1,8,0.01
2013-2-25,40.0,28.3,15.8,28.4,20.8,11.4,85,74,61,30.16,30.04,6,1,6,0.05
2013-2-26,37.3,32.2,28.3,31.3,26.9,21.3,92,81,67,30.07,29.47,12,3,12,0.24
2013-2-27,37.3,35.0,33.5,34.3,32.3,31.1,92,90,88,29.53,29.41,6,1,6,0.59
2013-2-28,39.1,34.7,31.0,34.4,30.2,25.2,91,84,76,29.90,29.49,8,2,8,0.29
2013-3-1,31.0,28.2,26.5,25.7,22.4,20.4,82,78,75,30.04,29.89,9,2,9,0.00
2013-3-2,31.1,26.9,25.0,23.2,20.4,16.9,81,76,69,30.01,29.98,8,1,8,0.00
2013-3-3,30.6,24.6,19.1,19.7,16.9,13.2,80,72,61,29.99,29.92,7,1,7,0.00
2013-3-4,35.5,24.8,14.9,21.3,15.9,10.5,84,70,48,30.08,29.98,6,0,6,0.04
2013-3-5,36.4,28.5,19.4,26.7,21.6,13.6,82,75,66,30.07,29.79,8,2,8,0.00
2013-3-6,41.9,34.5,28.3,32.1,27.8,22.8,85,77,65,30.15,29.79,8,2,8,0.00
2013-3-7,38.7,34.4,29.0,31.2,27.5,21.1,84,76,66,30.33,30.13,6,1,6,0.00
2013-3-8,44.6,33.1,23.4,31.1,24.6,18.2,83,71,54,30.42,30.32,4,1,4,0.00
2013-3-9,45.0,35.3,24.8,33.8,28.2,20.7,86,76,60,30.36,30.00,10,1,10,0.00
2013-3-10,61.6,47.4,33.1,48.1,37.9,28.4,86,71,53,30.00,29.75,11,2,11,0.01
2013-3-11,52.7,48.3,38.9,47.1,42.9,32.9,90,82,71,29.78,29.43,12,4,12,0.30
2013-3-12,38.9,36.1,30.6,33.5,30.3,25.5,85,79,73,29.86,29.63,12,3,12,0.02
2013-3-13,31.9,31.4,31.1,27.6,27.0,26.2,86,83,81,29.85,29.80,5,1,5,0.00
2013-3-23,41.0,35.8,27.7,27.8,24.2,20.8,75,63,55,30.03,29.99,5,1,5,0.00
2013-3-24,38.7,30.9,23.8,29.3,23.5,18.5,84,74,55,30.01,29.59,10,2,10,0.00
2013-3-25,41.4,35.5,31.7,29.2,26.8,24.4,80,71,61,29.84,29.52,10,3,10,0.00
2013-3-26,45.4,38.3,34.6,33.2,29.5,27.1,79,71,53,30.04,29.84,7,2,7,0.00
2013-3-27,49.0,39.4,30.4,30.7,27.1,23.7,79,62,44,30.12,30.03,9,2,9,0.00
2013-3-28,52.6,41.7,33.5,32.1,27.4,23.6,71,58,41,30.20,30.12,7,2,7,0.00
2013-3-29,52.7,41.3,29.7,27.5,24.0,20.7,70,51,33,30.22,30.13,7,1,7,0.00
2013-3-30,56.2,41.6,26.3,31.1,25.4,19.3,77,55,31,30.16,29.88,10,2,10,0.00
2013-3-31,59.4,45.9,35.3,43.8,34.2,25.7,80,65,41,29.88,29.56,12,2,12,0.04
2013-4-1,43.9,34.9,29.2,35.2,20.2,13.7,78,56,37,30.02,29.62,10,3,10,0.00
2013-4-2,42.7,32.5,22.7,20.3,15.5,13.0,73,51,35,30.18,30.02,8,2,10,0.00
2013-4-3,44.3,32.5,23.9,18.5,14.8,11.6,66,49,32,30.36,30.17,10,1,11,0.00
2013-4-4,57.4,38.7,23.4,25.6,20.1,15.7,73,50,27,30.30,29.89,10,2,10,0.00
2013-4-5,47.9,41.3,32.4,31.0,23.8,18.5,74,51,32,30.17,29.88,7,1,7,0.00
2013-4-6,52.7,40.3,29.2,28.7,23.5,19.2,69,52,37,30.20,29.75,10,2,10,0.00
2013-4-7,57.2,51.9,41.4,45.9,37.1,27.6,67,57,42,29.98,29.56,14,4,14,0.00
2013-4-8,64.1,49.8,31.3,56.3,43.0,25.7,87,78,64,29.98,29.65,10,2,10,0.16
2013-4-9,50.9,46.4,42.5,45.0,41.9,38.2,91,84,77,30.05,29.84,7,2,7,0.57
2013-4-10,44.5,43.6,43.4,41.5,40.8,40.6,90,90,89,29.94,29.91,4,1,4,0.02
2013-4-11,38.5,37.6,36.5,36.4,35.2,34.2,92,91,90,29.91,29.58,9,3,9,0.31
2013-4-12,43.9,39.6,36.0,40.8,36.2,33.8,93,88,78,29.71,29.47,10,2,10,0.22
2013-4-13,45.0,40.1,36.5,37.8,33.2,29.3,87,76,64,29.93,29.71,10,2,10,0.04
2013-4-14,50.2,40.8,31.9,41.0,33.7,26.7,84,76,65,30.06,29.91,7,1,7,0.01
2013-4-15,69.3,53.5,35.3,54.5,45.1,31.3,88,74,57,29.93,29.83,13,3,13,0.01
2013-4-16,62.3,55.6,49.0,53.5,44.7,36.2,88,69,42,30.18,29.83,9,2,9,0.04
2013-4-17,58.0,47.5,40.3,43.7,36.7,31.1,89,67,51,30.29,29.99,8,2,8,0.58
2013-4-18,78.7,57.9,44.3,65.6,53.2,41.0,91,85,62,30.00,29.54,18,3,18,0.10
2013-4-19,58.9,47.3,38.5,55.9,41.1,30.6,91,79,66,29.69,29.28,16,4,16,0.05
2013-4-20,41.8,36.1,30.4,31.2,24.3,17.6,84,63,49,30.38,29.69,12,3,12,0.01
2013-4-21,53.3,37.3,25.2,34.3,26.4,20.3,85,66,44,30.56,30.38,8,1,8,0.00
2013-4-22,65.2,45.9,29.3,41.0,32.4,23.7,84,61,34,30.42,30.15,7,1,7,0.00
2013-4-23,70.9,54.0,37.3,52.8,42.5,31.4,86,67,45,30.16,29.76,10,2,10,0.16
2013-4-24,55.6,55.3,53.3,52.0,51.5,48.2,89,87,85,29.76,29.68,6,1,6,0.15
2013-5-8,65.9,62.4,59.8,52.0,51.1,50.6,72,67,59,29.94,29.92,0,0,0,0.00
2013-5-9,81.0,66.0,50.0,57.9,51.2,44.7,85,61,38,29.93,29.85,5,1,5,0.00
2013-5-10,70.9,60.3,44.6,63.1,52.3,38.3,87,75,54,29.87,29.71,8,1,8,0.09
2013-5-11,63.9,49.7,41.2,51.5,42.2,33.2,85,76,63,29.84,29.67,14,2,14,0.00
2013-5-12,50.8,43.0,37.1,34.9,31.4,25.6,80,64,50,30.02,29.80,8,2,11,0.00
2013-5-13,63.0,43.7,30.4,36.0,28.9,24.0,79,58,32,30.10,30.02,8,1,8,0.00
2013-5-14,73.8,55.0,39.4,54.0,42.4,30.9,77,64,48,30.06,29.69,8,1,8,0.00
2013-5-15,54.7,54.1,53.8,48.1,47.1,46.1,80,77,73,29.72,29.61,2,0,2,0.00
2013-5-19,78.1,73.3,69.1,62.2,60.8,59.1,71,65,58,29.89,29.85,4,1,4,0.00
2013-5-20,94.7,74.7,61.2,73.4,64.1,55.7,85,71,49,29.90,29.74,10,1,10,0.00
2013-5-21,91.3,75.4,65.9,69.1,63.5,59.8,85,68,42,29.79,29.69,10,1,10,0.01
2013-5-22,81.0,71.0,63.7,68.0,62.5,59.1,86,75,54,29.72,29.59,11,2,11,0.11
2013-5-23,63.7,53.9,42.7,59.9,50.0,38.3,89,87,79,30.09,29.65,5,1,5,0.05
2013-5-24,63.5,46.6,38.9,44.0,37.4,33.3,87,72,44,30.29,30.09,6,1,6,0.00
2013-5-25,70.0,55.1,36.7,45.8,39.9,31.7,86,58,39,30.34,30.23,6,1,6,0.00
2013-5-26,70.9,54.0,38.7,47.2,39.1,32.8,83,59,36,30.29,30.19,6,1,6,0.00
2013-5-27,65.2,49.0,42.1,47.1,39.3,35.3,79,70,52,30.23,30.15,5,0,5,0.00
2013-5-28,67.9,67.9,67.9,64.8,64.8,64.6,90,90,90,29.80,29.80,0,0,0,0.00